AirNav   Pilot Hours Calculator
 
 1335 users online  

61NC Southern Comforts Aerodrome
Parkton, North Carolina, USA

GOING TO PARKTON?


FAA INFORMATION EFFECTIVE 19 MAY 2022

Location

FAA Identifier: 61NC
Lat/Long: 34-52-16.5900N 078-57-56.1040W
34-52.276500N 078-57.935067W
34.8712750,-78.9655844
(estimated)
Elevation: 175 ft. / 53 m (estimated)
Variation: 07W (1985)
From city: 3 miles SE of PARKTON, NC
Time zone: UTC -4 (UTC -5 during Standard Time)
Zip code: 28371

Airport Operations

Airport use: Private use. Permission required prior to landing
Activation date: 06/1976
Control tower: no
ARTCC: WASHINGTON CENTER
FSS: RALEIGH FLIGHT SERVICE STATION
Attendance: DAYLIGHT HOURS
Wind indicator: yes
Segmented circle: no

Airport Communications

UNICOM: 122.8
WX ASOS at FAY (8 nm NE): 121.25 (910-484-1546)
WX ASOS at LBT (16 nm S): 134.775 (910-739-7120)

Nearby radio navigation aids

VOR radial/distance  VOR name  Freq  Var
FAYr217/8.2FAYETTEVILLE VOR/DME114.8504W
SDZr127/36.9SANDHILLS VORTAC111.8003W

 
NDB name  Hdg/Dist  Freq  Var  ID
FORT BRAGG212/17.739307WFGP ..-. --. .--.
POPE188/21.333807WPOB .--. --- -...
CLINTON267/30.341209WCTZ -.-. - --..
DILLON047/32.227409WDLC -.. .-.. -.-.
HARNETT211/36.641708WHQT .... --.- -
CAMP348/38.022707WCPC -.-. .--. -.-.

Airport Services

Fuel available: 100LL
Airframe service: MAJOR
Powerplant service: MAJOR

Runway Information

Runway 1/19

Dimensions: 4000 x 200 ft. / 1219 x 61 m
Surface: turf
RUNWAY 1  RUNWAY 19
Traffic pattern: leftleft
Obstructions: 30 ft. trees30 ft. trees

Airport Ownership and Management from official FAA records

Ownership: Privately-owned
Owner: WILLIAM K. JOHNSON/WALTER MC GILL
391 LITTLE MARSH RD
PARKTON, NC 28371
Phone 910-858-2206
MR. MC GILL RESIDES IN CALIFORNIA AND IS MR. JOHNSON'S UNCLE.
Manager: WILLIAM K. JOHNSON
391 LITTLE MARSH RD
PARKTON, NC 28371
Phone 910-858-2206

Airport Operational Statistics

Aircraft based on the field: 37
Single engine airplanes: 37
    

Additional Remarks

PUBLIC PROVIDED WITH REPAIR SERVICES.
FOR CD CTC WASHINGTON ARTCC AT 703-771-3587.

Instrument Procedures

There are no published instrument procedures at 61NC.

Some nearby airports with instrument procedures:

KFAY - Fayetteville Regional Airport/Grannis Field (8 nm NE)
5W4 - P K Airpark (14 nm NW)
KFBG - Simmons Army Airfield (16 nm N)
KLBT - Lumberton Regional Airport (16 nm S)
KPOB - Pope Army Airfield (18 nm N)
 
Loc | Ops | Rwys | IFR | FBO | Links
Com | Nav | Svcs | Stats | Notes
Area around 61NC (Southern Comforts Aerodrome)
 
Road maps at: MapQuest Bing Google
 
Aerial photo
No photo
 
Sectional chart

 
Airport distance calculator
Flying to Southern Comforts Aerodrome? Find the distance to fly.

From to 61NC

Sunrise and sunset
Times for 19-May-2022
 Local
(UTC-4)
 Zulu
(UTC)
Morning civil twilight05:4209:42
Sunrise06:1110:11
Sunset20:1400:14
Evening civil twilight20:4200:42

Current date and time
Zulu (UTC)  19-May-2022 13:21:45
Local (UTC-4)  19-May-2022 09:21:45
 
METAR
KFAY 
8nm NE 
191253Z 22012G20KT 10SM CLR 26/19 A2985 RMK AO2 SLP100 T02560194
KFBG 
15nm N 
191256Z AUTO 23008KT 10SM CLR 25/20 A2984 RMK AO2 SLP105 T02500196 $
KLBT 
17nm S 
181756Z AUTO VRB05KT 10SM CLR 32/11 A3000 RMK AO2 SLP156 T03170111 10317 20200 58020 TSNO
KPOB 
18nm N 
191256Z AUTO 21011KT 10SM CLR 26/19 A2984 RMK AO2 SLP106 T02550194 $
TAF
KFAY 
8nm NE 
191120Z 1912/2012 24013G19KT P6SM SCT070 SCT250 FM192300 27007KT P6SM SCT070 BKN250 PROB30 1923/2005 TSRA BKN050CB
KFBG 
15nm N 
190900Z 1909/2015 20009KT 9999 SCT010 WS020/22040KT 510003 QNH2982INS BECMG 1913/1914 24012G18KT 9999 FEW015 QNH2986INS BECMG 1919/1920 27010G15KT 9000 -SHRA FEW045 QNH2978INS TEMPO 1922/2002 VRB25G35KT 6000 -TSRA SCT045CB BECMG 2003/2004 21009KT 9999 NSW BKN050 QNH2978INS TX30/1919Z TN20/1909Z
KLBT 
17nm S 
191120Z 1912/2012 20008KT P6SM FEW200 FM191700 25011G18KT P6SM FEW200 FM192100 22010KT P6SM VCTS SCT040CB FM200500 22004KT P6SM SCT200 AMD NOT SKED
KPOB 
18nm N 
190100Z 1901/2007 21010G15KT 9999 FEW130 SCT250 520102 QNH2984INS TEMPO 1909/1912 SCT010 BECMG 1913/1914 25012G18KT 9999 SCT040 SCT130 BKN250 QNH2977INS BECMG 1918/1919 26012G20KT 9999 SCT050 SCT130 BKN250 QNH2974INS BECMG 1921/1922 26010G18KT 8000 -SHRA VCTS FEW035 SCT050CB BKN120 BKN250 QNH2972INS TEMPO 1923/2003 27020G30KT 4800 -TSRA SCT030 BKN045CB OVC120 TX35/1920Z TN19/1910Z LAST NO AMDS AFT 1902 NEXT 1917
NOTAMs
Click for the latest NOTAMs
NOTAMs are issued by the DoD/FAA and will open in a separate window not controlled by AirNav.

 

 
 

Would you like to see your business listed on this page?

 If your business provides an interesting product or service to pilots, flight crews, aircraft, or users of the Southern Comforts Aerodrome, you should consider listing it here.  To start the listing process, click on the button below
 
Add a business
 

Other Pages about Southern Comforts Aerodrome

users.aol.com/...
 
Update a link
 
Copyright © AirNav, LLC. All rights reserved. Privacy Policy  Contact